Overseas Skopelos — V7SU9 — position and weather

sailwx.info

Track history (hours):
 
Tides and Currents Weather Stations Pressure Air Temp Water Temp Dewpoint Dewpoint Depression Visibility Wind Speed Wind Dir Waves Ship Positions

Overseas Skopelos

Last reported at 2016-Jun-27 16:33 UTC. Time now 2016-Jun-27 20:29 UTC.
Position N 43°05' E 034°36'.

Length 183 m; draft 7.8 m.

Type: Tanker. MMSI: 538003726.

Date/timePositionNaut miles runAvg speedWind from/ knotsBaromVisibWave heightAir tempDewpointWater temp
2016-Jun-27 16:33N 43°05' E 034°36'23 3.7
2016-Jun-27 10:17N 43°26' E 034°50'1013.2
2016-Jun-27 09:33N 43°26' E 035°04'1313.2
2016-Jun-27 08:33N 43°26' E 035°22'1313.4
2016-Jun-27 07:34N 43°26' E 035°40'1413.7
2016-Jun-27 06:33N 43°26' E 035°59'  
2016-Jun-24 03:31N 39°48' E 025°36'10911.6
2016-Jun-23 18:04N 37°58' E 025°35'612.6
2016-Jun-23 17:33N 37°52' E 025°37'2612.6
2016-Jun-23 15:29N 37°28' E 025°48'350 7.0
2016-Jun-21 13:34N 32°48' E 030°05'1513.5
2016-Jun-21 12:25N 32°45' E 030°23'1112.9
2016-Jun-21 11:33N 32°43' E 030°36'1312.5
2016-Jun-21 10:33N 32°40' E 030°50'1312.7
2016-Jun-21 09:33N 32°37' E 031°05'1312.8
2016-Jun-21 08:33N 32°34' E 031°20'1713.3
2016-Jun-21 07:17N 32°30' E 031°40'811.4
2016-Jun-21 06:34N 32°22' E 031°42'2713.0
2016-Jun-21 04:30N 31°56' E 031°42'  
Track history (hours):
 
Tides and Currents Weather Stations Pressure Air Temp Water Temp Dewpoint Dewpoint Depression Visibility Wind Speed Wind Dir Waves Ship Positions

Overseas Skopelos

Last reported at 2016-Jun-27 16:33 UTC. Time now 2016-Jun-27 20:29 UTC.
Position N 43°05' E 034°36'.

Length 183 m; draft 7.8 m.

Type: Tanker. MMSI: 538003726.

Date/timePositionNaut miles runAvg speedWind from/ knotsBaromVisibWave heightAir tempDewpointWater temp
2016-Jun-27 16:33N 43°05' E 034°36'23 3.7
2016-Jun-27 10:17N 43°26' E 034°50'1013.2
2016-Jun-27 09:33N 43°26' E 035°04'1313.2
2016-Jun-27 08:33N 43°26' E 035°22'1313.4
2016-Jun-27 07:34N 43°26' E 035°40'1413.7
2016-Jun-27 06:33N 43°26' E 035°59'  
2016-Jun-24 03:31N 39°48' E 025°36'10911.6
2016-Jun-23 18:04N 37°58' E 025°35'612.6
2016-Jun-23 17:33N 37°52' E 025°37'2612.6
2016-Jun-23 15:29N 37°28' E 025°48'350 7.0
2016-Jun-21 13:34N 32°48' E 030°05'1513.5
2016-Jun-21 12:25N 32°45' E 030°23'1112.9
2016-Jun-21 11:33N 32°43' E 030°36'1312.5
2016-Jun-21 10:33N 32°40' E 030°50'1312.7
2016-Jun-21 09:33N 32°37' E 031°05'1312.8
2016-Jun-21 08:33N 32°34' E 031°20'1713.3
2016-Jun-21 07:17N 32°30' E 031°40'811.4
2016-Jun-21 06:34N 32°22' E 031°42'2713.0
2016-Jun-21 04:30N 31°56' E 031°42'  

Dump ship's entire track history